sensor_id;sensor_type;location;lat;lon;timestamp;pressure;altitude;pressure_sealevel;temperature;humidity
10462;BME280;5278;42.656;23.374;2023-03-03T00:02:00;94698.47;;;5.51;100.00
10462;BME280;5278;42.656;23.374;2023-03-03T00:04:27;94693.47;;;5.50;100.00
10462;BME280;5278;42.656;23.374;2023-03-03T00:06:55;94654.38;;;5.27;100.00
10462;BME280;5278;42.656;23.374;2023-03-03T00:09:22;94690.75;;;5.51;100.00
10462;BME280;5278;42.656;23.374;2023-03-03T00:11:53;94674.34;;;5.52;100.00
10462;BME280;5278;42.656;23.374;2023-03-03T00:14:23;94677.16;;;5.59;100.00
10462;BME280;5278;42.656;23.374;2023-03-03T00:16:51;94680.41;;;5.61;100.00
10462;BME280;5278;42.656;23.374;2023-03-03T00:19:20;94682.69;;;5.64;100.00
10462;BME280;5278;42.656;23.374;2023-03-03T00:21:49;94684.44;;;5.63;100.00
10462;BME280;5278;42.656;23.374;2023-03-03T00:24:19;94680.66;;;5.68;100.00
10462;BME280;5278;42.656;23.374;2023-03-03T00:26:50;94642.06;;;5.48;100.00
10462;BME280;5278;42.656;23.374;2023-03-03T00:29:27;94640.31;;;5.49;100.00
10462;BME280;5278;42.656;23.374;2023-03-03T00:32:07;94632.19;;;5.44;100.00
10462;BME280;5278;42.656;23.374;2023-03-03T00:34:43;94677.63;;;5.72;100.00
10462;BME280;5278;42.656;23.374;2023-03-03T00:37:22;94670.19;;;5.69;100.00
10462;BME280;5278;42.656;23.374;2023-03-03T00:39:50;94666.94;;;5.67;100.00
10462;BME280;5278;42.656;23.374;2023-03-03T00:42:18;94666.69;;;5.60;100.00
10462;BME280;5278;42.656;23.374;2023-03-03T00:44:46;94658.53;;;5.65;100.00
10462;BME280;5278;42.656;23.374;2023-03-03T00:47:26;94645.84;;;5.54;100.00
10462;BME280;5278;42.656;23.374;2023-03-03T00:52:40;94652.06;;;5.61;100.00
10462;BME280;5278;42.656;23.374;2023-03-03T00:55:11;94648.28;;;5.55;100.00
10462;BME280;5278;42.656;23.374;2023-03-03T00:57:37;94635.28;;;5.57;100.00
10462;BME280;5278;42.656;23.374;2023-03-03T01:00:06;94633.66;;;5.56;100.00
10462;BME280;5278;42.656;23.374;2023-03-03T01:02:33;94637.69;;;5.58;100.00
10462;BME280;5278;42.656;23.374;2023-03-03T01:05:02;94629.81;;;5.60;100.00
10462;BME280;5278;42.656;23.374;2023-03-03T01:07:28;94622.00;;;5.52;100.00
10462;BME280;5278;42.656;23.374;2023-03-03T01:09:56;94627.16;;;5.52;100.00
10462;BME280;5278;42.656;23.374;2023-03-03T01:12:23;94622.56;;;5.46;100.00
10462;BME280;5278;42.656;23.374;2023-03-03T01:14:52;94625.84;;;5.38;100.00
10462;BME280;5278;42.656;23.374;2023-03-03T01:17:19;94629.63;;;5.44;100.00
10462;BME280;5278;42.656;23.374;2023-03-03T01:19:46;94623.53;;;5.45;100.00
10462;BME280;5278;42.656;23.374;2023-03-03T01:22:15;94562.63;;;4.99;100.00
10462;BME280;5278;42.656;23.374;2023-03-03T01:24:42;94638.03;;;5.46;100.00
10462;BME280;5278;42.656;23.374;2023-03-03T01:27:09;94634.13;;;5.42;100.00
10462;BME280;5278;42.656;23.374;2023-03-03T01:29:36;94608.56;;;5.31;100.00
10462;BME280;5278;42.656;23.374;2023-03-03T01:32:03;94615.16;;;5.43;100.00
10462;BME280;5278;42.656;23.374;2023-03-03T01:34:30;94622.28;;;5.49;100.00
10462;BME280;5278;42.656;23.374;2023-03-03T01:36:57;94592.16;;;5.32;100.00
10462;BME280;5278;42.656;23.374;2023-03-03T01:39:27;94617.66;;;5.52;100.00
10462;BME280;5278;42.656;23.374;2023-03-03T01:41:54;94614.34;;;5.60;100.00
10462;BME280;5278;42.656;23.374;2023-03-03T01:44:20;94609.72;;;5.63;100.00
10462;BME280;5278;42.656;23.374;2023-03-03T01:46:53;94605.25;;;5.66;100.00
10462;BME280;5278;42.656;23.374;2023-03-03T01:49:24;94603.53;;;5.56;100.00
10462;BME280;5278;42.656;23.374;2023-03-03T01:51:56;94611.22;;;5.39;100.00
10462;BME280;5278;42.656;23.374;2023-03-03T01:54:28;94602.72;;;5.29;100.00
10462;BME280;5278;42.656;23.374;2023-03-03T01:56:57;94606.66;;;5.33;100.00
10462;BME280;5278;42.656;23.374;2023-03-03T01:59:28;94614.50;;;5.31;100.00
10462;BME280;5278;42.656;23.374;2023-03-03T02:01:57;94601.06;;;5.37;100.00
10462;BME280;5278;42.656;23.374;2023-03-03T02:04:25;94555.44;;;5.02;100.00
10462;BME280;5278;42.656;23.374;2023-03-03T02:06:55;94605.25;;;5.38;100.00
10462;BME280;5278;42.656;23.374;2023-03-03T02:09:31;94609.63;;;5.38;100.00
10462;BME280;5278;42.656;23.374;2023-03-03T02:12:04;94597.44;;;7.73;100.00
10462;BME280;5278;42.656;23.374;2023-03-03T02:14:32;94587.41;;;9.63;100.00
10462;BME280;5278;42.656;23.374;2023-03-03T02:16:59;94584.16;;;11.56;86.81
10462;BME280;5278;42.656;23.374;2023-03-03T02:19:34;94584.72;;;12.87;76.17
10462;BME280;5278;42.656;23.374;2023-03-03T02:22:05;94588.44;;;13.68;69.26
10462;BME280;5278;42.656;23.374;2023-03-03T02:24:36;94575.44;;;14.42;63.61
10462;BME280;5278;42.656;23.374;2023-03-03T02:27:06;94575.63;;;15.26;58.80
10462;BME280;5278;42.656;23.374;2023-03-03T02:29:33;94575.78;;;15.58;51.07
10462;BME280;5278;42.656;23.374;2023-03-03T02:32:00;94491.66;;;13.76;53.42
10462;BME280;5278;42.656;23.374;2023-03-03T02:34:27;94584.31;;;12.90;57.62
10462;BME280;5278;42.656;23.374;2023-03-03T02:36:53;94587.13;;;11.68;62.16
10462;BME280;5278;42.656;23.374;2023-03-03T02:39:22;94589.94;;;10.56;67.92
10462;BME280;5278;42.656;23.374;2023-03-03T02:41:53;94559.59;;;9.49;72.00
10462;BME280;5278;42.656;23.374;2023-03-03T02:44:24;94587.19;;;8.79;76.50
10462;BME280;5278;42.656;23.374;2023-03-03T02:46:54;94602.25;;;8.27;79.95
10462;BME280;5278;42.656;23.374;2023-03-03T02:49:22;94599.41;;;7.88;82.10
10462;BME280;5278;42.656;23.374;2023-03-03T02:51:50;94594.91;;;7.40;85.28
10462;BME280;5278;42.656;23.374;2023-03-03T02:54:20;94605.72;;;7.01;87.81
10462;BME280;5278;42.656;23.374;2023-03-03T02:56:47;94605.69;;;6.67;90.05
10462;BME280;5278;42.656;23.374;2023-03-03T02:59:14;94601.00;;;6.45;92.04
10462;BME280;5278;42.656;23.374;2023-03-03T03:01:43;94596.38;;;6.31;92.88
10462;BME280;5278;42.656;23.374;2023-03-03T03:04:12;94579.06;;;6.05;93.95
10462;BME280;5278;42.656;23.374;2023-03-03T03:06:39;94560.28;;;5.78;95.37
10462;BME280;5278;42.656;23.374;2023-03-03T03:09:07;94595.22;;;5.90;95.75
10462;BME280;5278;42.656;23.374;2023-03-03T03:11:35;94589.66;;;5.85;96.66
10462;BME280;5278;42.656;23.374;2023-03-03T03:14:03;94591.41;;;5.84;96.76
10462;BME280;5278;42.656;23.374;2023-03-03T03:16:30;94590.09;;;5.80;97.03
10462;BME280;5278;42.656;23.374;2023-03-03T03:18:59;94589.03;;;5.73;97.54
10462;BME280;5278;42.656;23.374;2023-03-03T03:21:27;94590.59;;;5.66;98.33
10462;BME280;5278;42.656;23.374;2023-03-03T03:23:54;94592.50;;;5.64;98.80
10462;BME280;5278;42.656;23.374;2023-03-03T03:26:21;94591.31;;;5.58;99.14
10462;BME280;5278;42.656;23.374;2023-03-03T03:28:49;94589.16;;;5.54;99.36
10462;BME280;5278;42.656;23.374;2023-03-03T03:31:17;94499.28;;;4.88;100.00
10462;BME280;5278;42.656;23.374;2023-03-03T03:33:44;94590.03;;;5.45;100.00
10462;BME280;5278;42.656;23.374;2023-03-03T03:36:14;94597.38;;;5.40;100.00
10462;BME280;5278;42.656;23.374;2023-03-03T03:38:42;94589.16;;;5.36;100.00
10462;BME280;5278;42.656;23.374;2023-03-03T03:41:10;94551.53;;;5.26;100.00
10462;BME280;5278;42.656;23.374;2023-03-03T03:43:37;94584.63;;;5.38;100.00
10462;BME280;5278;42.656;23.374;2023-03-03T03:46:04;94593.19;;;5.39;100.00
10462;BME280;5278;42.656;23.374;2023-03-03T03:48:32;94578.91;;;5.44;100.00
10462;BME280;5278;42.656;23.374;2023-03-03T03:50:58;94581.22;;;5.47;100.00
10462;BME280;5278;42.656;23.374;2023-03-03T03:53:27;94574.31;;;5.48;100.00
10462;BME280;5278;42.656;23.374;2023-03-03T03:55:54;94570.09;;;5.47;100.00
10462;BME280;5278;42.656;23.374;2023-03-03T03:58:21;94575.63;;;5.52;100.00
10462;BME280;5278;42.656;23.374;2023-03-03T04:00:48;94573.19;;;5.50;100.00
10462;BME280;5278;42.656;23.374;2023-03-03T04:03:15;94567.91;;;5.52;100.00
10462;BME280;5278;42.656;23.374;2023-03-03T04:05:42;94559.06;;;5.54;100.00
10462;BME280;5278;42.656;23.374;2023-03-03T04:08:09;94558.84;;;5.48;100.00
10462;BME280;5278;42.656;23.374;2023-03-03T04:10:39;94562.97;;;5.58;100.00
10462;BME280;5278;42.656;23.374;2023-03-03T04:13:05;94563.50;;;5.62;100.00
10462;BME280;5278;42.656;23.374;2023-03-03T04:15:33;94566.28;;;5.69;100.00
10462;BME280;5278;42.656;23.374;2023-03-03T04:18:02;94564.69;;;5.68;100.00
10462;BME280;5278;42.656;23.374;2023-03-03T04:20:29;94561.31;;;5.67;100.00
10462;BME280;5278;42.656;23.374;2023-03-03T04:22:56;94560.69;;;5.73;100.00
10462;BME280;5278;42.656;23.374;2023-03-03T04:25:24;94566.38;;;5.77;100.00
10462;BME280;5278;42.656;23.374;2023-03-03T04:27:52;94561.38;;;5.75;100.00
10462;BME280;5278;42.656;23.374;2023-03-03T04:30:19;94561.69;;;5.72;100.00
10462;BME280;5278;42.656;23.374;2023-03-03T04:32:46;94556.50;;;5.72;100.00
10462;BME280;5278;42.656;23.374;2023-03-03T04:35:13;94560.41;;;5.76;100.00
10462;BME280;5278;42.656;23.374;2023-03-03T04:37:40;94539.72;;;5.68;100.00
10462;BME280;5278;42.656;23.374;2023-03-03T04:40:08;94555.53;;;5.73;100.00
10462;BME280;5278;42.656;23.374;2023-03-03T04:42:36;94553.25;;;5.70;100.00
10462;BME280;5278;42.656;23.374;2023-03-03T04:45:06;94548.19;;;5.60;100.00
10462;BME280;5278;42.656;23.374;2023-03-03T04:47:33;94547.94;;;5.54;100.00
10462;BME280;5278;42.656;23.374;2023-03-03T04:50:00;94552.81;;;5.57;100.00
10462;BME280;5278;42.656;23.374;2023-03-03T04:52:27;94557.31;;;5.55;100.00
10462;BME280;5278;42.656;23.374;2023-03-03T04:54:54;94499.41;;;5.14;100.00
10462;BME280;5278;42.656;23.374;2023-03-03T04:57:21;94563.13;;;5.57;100.00
10462;BME280;5278;42.656;23.374;2023-03-03T04:59:48;94565.53;;;5.58;100.00
10462;BME280;5278;42.656;23.374;2023-03-03T05:02:17;94566.91;;;5.62;100.00
10462;BME280;5278;42.656;23.374;2023-03-03T05:04:44;94565.28;;;5.61;100.00
10462;BME280;5278;42.656;23.374;2023-03-03T05:07:11;94562.53;;;5.63;100.00
10462;BME280;5278;42.656;23.374;2023-03-03T05:09:38;94571.06;;;5.63;100.00
10462;BME280;5278;42.656;23.374;2023-03-03T05:12:05;94565.41;;;5.60;100.00
10462;BME280;5278;42.656;23.374;2023-03-03T05:14:32;94574.75;;;5.61;100.00
10462;BME280;5278;42.656;23.374;2023-03-03T05:16:59;94566.91;;;5.62;100.00
10462;BME280;5278;42.656;23.374;2023-03-03T05:19:27;94574.19;;;5.67;100.00
10462;BME280;5278;42.656;23.374;2023-03-03T05:21:54;94570.78;;;5.67;100.00
10462;BME280;5278;42.656;23.374;2023-03-03T05:24:22;94564.47;;;5.61;100.00
10462;BME280;5278;42.656;23.374;2023-03-03T05:26:48;94579.34;;;5.67;100.00
10462;BME280;5278;42.656;23.374;2023-03-03T05:29:15;94595.94;;;5.55;100.00
10462;BME280;5278;42.656;23.374;2023-03-03T05:31:42;94579.34;;;5.40;100.00
10462;BME280;5278;42.656;23.374;2023-03-03T05:34:09;94583.69;;;5.39;100.00
10462;BME280;5278;42.656;23.374;2023-03-03T05:36:38;94577.03;;;5.46;100.00
10462;BME280;5278;42.656;23.374;2023-03-03T05:39:04;94562.19;;;5.31;100.00
10462;BME280;5278;42.656;23.374;2023-03-03T05:41:31;94579.09;;;5.60;100.00
10462;BME280;5278;42.656;23.374;2023-03-03T05:44:01;94576.09;;;5.65;100.00
10462;BME280;5278;42.656;23.374;2023-03-03T05:46:28;94581.47;;;5.72;100.00
10462;BME280;5278;42.656;23.374;2023-03-03T05:48:55;94589.41;;;5.78;100.00
10462;BME280;5278;42.656;23.374;2023-03-03T05:51:22;94583.31;;;5.79;100.00
10462;BME280;5278;42.656;23.374;2023-03-03T05:53:50;94591.00;;;5.89;100.00
10462;BME280;5278;42.656;23.374;2023-03-03T05:56:17;94593.00;;;5.95;100.00
10462;BME280;5278;42.656;23.374;2023-03-03T05:58:44;94587.25;;;6.01;100.00
10462;BME280;5278;42.656;23.374;2023-03-03T06:01:12;94592.03;;;6.14;100.00
10462;BME280;5278;42.656;23.374;2023-03-03T06:03:38;94578.41;;;6.21;100.00
10462;BME280;5278;42.656;23.374;2023-03-03T06:06:06;94581.63;;;6.23;100.00
10462;BME280;5278;42.656;23.374;2023-03-03T06:08:34;94568.28;;;6.28;100.00
10462;BME280;5278;42.656;23.374;2023-03-03T06:11:03;94578.91;;;6.42;100.00
10462;BME280;5278;42.656;23.374;2023-03-03T06:13:30;94578.44;;;6.47;99.99
10462;BME280;5278;42.656;23.374;2023-03-03T06:15:57;94587.19;;;6.54;99.20
10462;BME280;5278;42.656;23.374;2023-03-03T06:18:24;94587.53;;;6.59;98.90
10462;BME280;5278;42.656;23.374;2023-03-03T06:20:52;94593.16;;;6.55;98.42
10462;BME280;5278;42.656;23.374;2023-03-03T06:23:19;94589.31;;;6.59;98.31
10462;BME280;5278;42.656;23.374;2023-03-03T06:25:46;94592.00;;;6.49;97.72
10462;BME280;5278;42.656;23.374;2023-03-03T06:28:15;94593.72;;;6.40;98.20
10462;BME280;5278;42.656;23.374;2023-03-03T06:30:42;94591.00;;;6.42;98.98
10462;BME280;5278;42.656;23.374;2023-03-03T06:33:09;94596.34;;;6.48;99.21
10462;BME280;5278;42.656;23.374;2023-03-03T06:35:36;94595.28;;;6.59;98.48
10462;BME280;5278;42.656;23.374;2023-03-03T06:38:03;94596.09;;;6.60;98.72
10462;BME280;5278;42.656;23.374;2023-03-03T06:40:30;94593.72;;;6.66;98.20
10462;BME280;5278;42.656;23.374;2023-03-03T06:42:57;94598.19;;;6.82;98.15
10462;BME280;5278;42.656;23.374;2023-03-03T06:45:26;94600.91;;;6.80;96.40
10462;BME280;5278;42.656;23.374;2023-03-03T06:47:52;94600.16;;;6.88;96.60
10462;BME280;5278;42.656;23.374;2023-03-03T06:50:20;94604.25;;;6.99;96.57
10462;BME280;5278;42.656;23.374;2023-03-03T06:52:48;94598.97;;;6.82;95.60
10462;BME280;5278;42.656;23.374;2023-03-03T06:55:22;94598.03;;;6.83;96.04
10462;BME280;5278;42.656;23.374;2023-03-03T06:57:48;94606.13;;;6.88;95.46
10462;BME280;5278;42.656;23.374;2023-03-03T07:00:17;94602.94;;;6.95;94.42
10462;BME280;5278;42.656;23.374;2023-03-03T07:02:48;94588.81;;;7.07;93.55
10462;BME280;5278;42.656;23.374;2023-03-03T07:05:20;94602.78;;;7.22;93.90
10462;BME280;5278;42.656;23.374;2023-03-03T07:07:49;94602.00;;;7.38;93.50
10462;BME280;5278;42.656;23.374;2023-03-03T07:10:21;94598.66;;;7.53;93.76
10462;BME280;5278;42.656;23.374;2023-03-03T07:12:48;94597.44;;;7.73;93.21
10462;BME280;5278;42.656;23.374;2023-03-03T07:15:17;94598.78;;;7.86;92.06
10462;BME280;5278;42.656;23.374;2023-03-03T07:17:48;94603.94;;;7.94;90.74
10462;BME280;5278;42.656;23.374;2023-03-03T07:20:19;94597.81;;;7.95;90.86
10462;BME280;5278;42.656;23.374;2023-03-03T07:22:47;94599.78;;;8.01;90.81
10462;BME280;5278;42.656;23.374;2023-03-03T07:25:29;94598.47;;;7.97;90.05
10462;BME280;5278;42.656;23.374;2023-03-03T07:27:59;94583.25;;;7.86;90.25
10462;BME280;5278;42.656;23.374;2023-03-03T07:30:30;94598.78;;;7.94;90.79
10462;BME280;5278;42.656;23.374;2023-03-03T07:33:18;94596.53;;;7.91;89.29
10462;BME280;5278;42.656;23.374;2023-03-03T07:35:49;94594.91;;;7.82;88.11
10462;BME280;5278;42.656;23.374;2023-03-03T07:38:23;94592.78;;;7.85;88.63
10462;BME280;5278;42.656;23.374;2023-03-03T07:40:52;94596.53;;;7.99;88.23
10462;BME280;5278;42.656;23.374;2023-03-03T07:43:32;94596.22;;;8.10;87.97
10462;BME280;5278;42.656;23.374;2023-03-03T07:46:02;94598.81;;;8.18;87.75
10462;BME280;5278;42.656;23.374;2023-03-03T07:48:43;94529.59;;;7.88;87.51
10462;BME280;5278;42.656;23.374;2023-03-03T07:51:15;94566.81;;;8.11;88.01
10462;BME280;5278;42.656;23.374;2023-03-03T07:53:44;94590.56;;;8.22;88.28
10462;BME280;5278;42.656;23.374;2023-03-03T07:56:16;94589.44;;;8.09;87.67
10462;BME280;5278;42.656;23.374;2023-03-03T07:58:47;94587.31;;;7.96;88.14
10462;BME280;5278;42.656;23.374;2023-03-03T08:01:38;94594.25;;;7.88;88.94
10462;BME280;5278;42.656;23.374;2023-03-03T08:04:21;94585.19;;;7.84;88.68
10462;BME280;5278;42.656;23.374;2023-03-03T08:06:51;94577.09;;;7.70;89.87
10462;BME280;5278;42.656;23.374;2023-03-03T08:09:42;94568.34;;;7.63;89.82
10462;BME280;5278;42.656;23.374;2023-03-03T08:15:18;94578.19;;;7.68;91.34
10462;BME280;5278;42.656;23.374;2023-03-03T08:17:46;94584.81;;;7.62;90.58
10462;BME280;5278;42.656;23.374;2023-03-03T08:23:20;94584.31;;;7.59;90.75
10462;BME280;5278;42.656;23.374;2023-03-03T08:25:48;94576.53;;;7.51;91.79
10462;BME280;5278;42.656;23.374;2023-03-03T08:28:15;94579.63;;;7.54;91.83
10462;BME280;5278;42.656;23.374;2023-03-03T08:30:42;94578.84;;;7.62;90.67
10462;BME280;5278;42.656;23.374;2023-03-03T08:33:10;94566.72;;;7.62;91.11
10462;BME280;5278;42.656;23.374;2023-03-03T08:35:38;94568.38;;;8.93;100.00
10462;BME280;5278;42.656;23.374;2023-03-03T08:38:06;94559.03;;;10.61;100.00
10462;BME280;5278;42.656;23.374;2023-03-03T08:40:34;94558.41;;;11.76;81.40
10462;BME280;5278;42.656;23.374;2023-03-03T08:43:02;94554.44;;;12.65;73.29
10462;BME280;5278;42.656;23.374;2023-03-03T08:45:29;94554.69;;;13.19;68.50
10462;BME280;5278;42.656;23.374;2023-03-03T08:47:56;94553.13;;;13.72;63.95
10462;BME280;5278;42.656;23.374;2023-03-03T08:50:29;94527.69;;;13.94;61.15
10462;BME280;5278;42.656;23.374;2023-03-03T08:52:56;94546.84;;;14.34;60.01
10462;BME280;5278;42.656;23.374;2023-03-03T08:55:24;94549.72;;;14.59;58.71
10462;BME280;5278;42.656;23.374;2023-03-03T08:57:54;94545.28;;;14.73;57.44
10462;BME280;5278;42.656;23.374;2023-03-03T09:00:23;94543.25;;;14.94;56.33
10462;BME280;5278;42.656;23.374;2023-03-03T09:02:52;94549.69;;;14.98;55.78
10462;BME280;5278;42.656;23.374;2023-03-03T09:05:21;94553.09;;;15.12;54.71
10462;BME280;5278;42.656;23.374;2023-03-03T09:07:49;94546.63;;;15.28;53.83
10462;BME280;5278;42.656;23.374;2023-03-03T09:10:19;94542.94;;;15.48;53.00
10462;BME280;5278;42.656;23.374;2023-03-03T09:12:54;94549.78;;;15.49;53.16
10462;BME280;5278;42.656;23.374;2023-03-03T09:15:24;94544.94;;;15.60;52.65
10462;BME280;5278;42.656;23.374;2023-03-03T09:17:52;94517.25;;;15.19;52.80
10462;BME280;5278;42.656;23.374;2023-03-03T09:20:35;94492.75;;;14.94;52.86
10462;BME280;5278;42.656;23.374;2023-03-03T09:23:30;94544.88;;;14.43;54.55
10462;BME280;5278;42.656;23.374;2023-03-03T09:26:20;94545.56;;;13.43;58.37
10462;BME280;5278;42.656;23.374;2023-03-03T09:28:50;94553.56;;;12.79;61.66
10462;BME280;5278;42.656;23.374;2023-03-03T09:31:24;94553.75;;;12.29;63.82
10462;BME280;5278;42.656;23.374;2023-03-03T09:33:52;94557.28;;;12.00;66.61
10462;BME280;5278;42.656;23.374;2023-03-03T09:36:25;94554.47;;;11.80;68.68
10462;BME280;5278;42.656;23.374;2023-03-03T09:38:53;94548.19;;;11.60;67.33
10462;BME280;5278;42.656;23.374;2023-03-03T09:41:40;94577.47;;;11.33;68.56
10462;BME280;5278;42.656;23.374;2023-03-03T09:44:28;94546.53;;;11.08;71.08
10462;BME280;5278;42.656;23.374;2023-03-03T09:47:07;94548.75;;;10.97;71.24
10462;BME280;5278;42.656;23.374;2023-03-03T09:49:48;94555.56;;;10.83;72.56
10462;BME280;5278;42.656;23.374;2023-03-03T09:52:29;94560.13;;;10.81;74.25
10462;BME280;5278;42.656;23.374;2023-03-03T09:55:11;94546.69;;;10.77;75.63
10462;BME280;5278;42.656;23.374;2023-03-03T09:57:52;94555.00;;;10.73;73.87
10462;BME280;5278;42.656;23.374;2023-03-03T10:00:34;94556.72;;;10.66;74.52
10462;BME280;5278;42.656;23.374;2023-03-03T10:03:39;94553.59;;;10.70;75.41
10462;BME280;5278;42.656;23.374;2023-03-03T10:06:20;94540.22;;;10.59;76.04
10462;BME280;5278;42.656;23.374;2023-03-03T10:08:56;94552.84;;;10.62;76.42
10462;BME280;5278;42.656;23.374;2023-03-03T10:11:34;94546.91;;;10.53;77.80
10462;BME280;5278;42.656;23.374;2023-03-03T10:14:36;94545.50;;;10.51;78.47
10462;BME280;5278;42.656;23.374;2023-03-03T10:17:21;94538.66;;;10.50;78.36
10462;BME280;5278;42.656;23.374;2023-03-03T10:20:02;94541.97;;;10.44;78.21
10462;BME280;5278;42.656;23.374;2023-03-03T10:22:37;94541.03;;;10.36;78.65
10462;BME280;5278;42.656;23.374;2023-03-03T10:25:15;94541.53;;;10.40;78.66
10462;BME280;5278;42.656;23.374;2023-03-03T10:27:56;94533.38;;;10.43;78.14
10462;BME280;5278;42.656;23.374;2023-03-03T10:30:34;94532.94;;;10.54;77.52
10462;BME280;5278;42.656;23.374;2023-03-03T10:33:09;94536.34;;;10.55;77.89
10462;BME280;5278;42.656;23.374;2023-03-03T10:35:51;94530.09;;;10.64;77.80
10462;BME280;5278;42.656;23.374;2023-03-03T10:38:37;94527.78;;;10.69;77.37
10462;BME280;5278;42.656;23.374;2023-03-03T10:41:20;94523.38;;;10.69;76.67
10462;BME280;5278;42.656;23.374;2023-03-03T10:47:25;94526.84;;;10.62;76.58
10462;BME280;5278;42.656;23.374;2023-03-03T10:50:02;94532.25;;;10.60;77.30
10462;BME280;5278;42.656;23.374;2023-03-03T10:52:38;94514.88;;;10.61;77.87
10462;BME280;5278;42.656;23.374;2023-03-03T10:55:31;94517.75;;;10.66;77.51
10462;BME280;5278;42.656;23.374;2023-03-03T10:58:19;94511.28;;;10.62;78.28
10462;BME280;5278;42.656;23.374;2023-03-03T11:00:56;94517.69;;;10.51;79.10
10462;BME280;5278;42.656;23.374;2023-03-03T11:03:53;94514.38;;;10.43;78.15
10462;BME280;5278;42.656;23.374;2023-03-03T11:06:25;94513.69;;;10.49;79.15
10462;BME280;5278;42.656;23.374;2023-03-03T11:09:04;94512.00;;;10.56;79.06
10462;BME280;5278;42.656;23.374;2023-03-03T11:11:40;94500.81;;;10.55;78.96
10462;BME280;5278;42.656;23.374;2023-03-03T11:14:12;94511.28;;;10.62;79.23
10462;BME280;5278;42.656;23.374;2023-03-03T11:16:53;94500.00;;;10.55;79.49
10462;BME280;5278;42.656;23.374;2023-03-03T11:19:36;94490.41;;;10.55;79.37
10462;BME280;5278;42.656;23.374;2023-03-03T11:22:32;94486.91;;;10.63;78.97
10462;BME280;5278;42.656;23.374;2023-03-03T11:25:10;94484.59;;;10.68;78.48
10462;BME280;5278;42.656;23.374;2023-03-03T11:27:57;94480.63;;;10.72;78.30
10462;BME280;5278;42.656;23.374;2023-03-03T11:30:33;94489.19;;;10.81;78.30
10462;BME280;5278;42.656;23.374;2023-03-03T11:33:05;94492.56;;;10.81;77.66
10462;BME280;5278;42.656;23.374;2023-03-03T11:35:39;94498.66;;;10.73;78.51
10462;BME280;5278;42.656;23.374;2023-03-03T11:38:35;94492.53;;;10.66;78.63
10462;BME280;5278;42.656;23.374;2023-03-03T11:41:12;94490.84;;;10.59;78.53
10462;BME280;5278;42.656;23.374;2023-03-03T11:43:44;94473.91;;;10.48;79.52
10462;BME280;5278;42.656;23.374;2023-03-03T11:46:16;94484.91;;;10.35;80.70
10462;BME280;5278;42.656;23.374;2023-03-03T11:48:48;94488.50;;;10.34;81.77
10462;BME280;5278;42.656;23.374;2023-03-03T11:51:21;94480.31;;;10.23;83.28
10462;BME280;5278;42.656;23.374;2023-03-03T11:54:02;94481.56;;;10.27;83.12
10462;BME280;5278;42.656;23.374;2023-03-03T11:56:34;94478.16;;;10.26;82.76
10462;BME280;5278;42.656;23.374;2023-03-03T11:59:18;94480.44;;;10.29;82.90
10462;BME280;5278;42.656;23.374;2023-03-03T12:01:53;94482.31;;;10.35;82.82
10462;BME280;5278;42.656;23.374;2023-03-03T12:04:26;94480.34;;;10.38;82.36
10462;BME280;5278;42.656;23.374;2023-03-03T12:07:13;94477.75;;;10.38;82.57
10462;BME280;5278;42.656;23.374;2023-03-03T12:09:48;94480.00;;;10.41;83.24
10462;BME280;5278;42.656;23.374;2023-03-03T12:12:21;94485.28;;;10.47;83.61
10462;BME280;5278;42.656;23.374;2023-03-03T12:14:58;94477.31;;;10.63;83.12
10462;BME280;5278;42.656;23.374;2023-03-03T12:17:43;94478.69;;;10.74;82.72
10462;BME280;5278;42.656;23.374;2023-03-03T12:20:18;94476.97;;;10.81;82.00
10462;BME280;5278;42.656;23.374;2023-03-03T12:22:57;94488.97;;;10.82;81.68
10462;BME280;5278;42.656;23.374;2023-03-03T12:25:33;94475.81;;;10.69;81.73
10462;BME280;5278;42.656;23.374;2023-03-03T12:28:05;94480.09;;;10.62;82.80
10462;BME280;5278;42.656;23.374;2023-03-03T12:30:59;94482.88;;;10.60;82.81
10462;BME280;5278;42.656;23.374;2023-03-03T12:33:42;94482.97;;;10.67;82.57
10462;BME280;5278;42.656;23.374;2023-03-03T12:36:24;94435.50;;;10.44;82.84
10462;BME280;5278;42.656;23.374;2023-03-03T12:39:00;94479.22;;;10.69;82.82
10462;BME280;5278;42.656;23.374;2023-03-03T12:41:35;94480.03;;;10.70;81.88
10462;BME280;5278;42.656;23.374;2023-03-03T12:44:12;94485.75;;;10.65;81.09
10462;BME280;5278;42.656;23.374;2023-03-03T12:46:44;94485.00;;;10.57;81.67
10462;BME280;5278;42.656;23.374;2023-03-03T12:49:12;94472.22;;;10.55;81.92
10462;BME280;5278;42.656;23.374;2023-03-03T12:51:50;94482.59;;;10.41;83.74
10462;BME280;5278;42.656;23.374;2023-03-03T12:54:40;94475.84;;;10.31;82.99
10462;BME280;5278;42.656;23.374;2023-03-03T12:57:18;94474.94;;;10.24;84.29
10462;BME280;5278;42.656;23.374;2023-03-03T13:00:00;94482.38;;;10.05;84.63
10462;BME280;5278;42.656;23.374;2023-03-03T13:02:40;94492.16;;;9.80;86.30
10462;BME280;5278;42.656;23.374;2023-03-03T13:05:19;94480.44;;;9.61;88.25
10462;BME280;5278;42.656;23.374;2023-03-03T13:07:55;94479.06;;;9.50;89.37
10462;BME280;5278;42.656;23.374;2023-03-03T13:10:28;94484.09;;;9.44;89.84
10462;BME280;5278;42.656;23.374;2023-03-03T13:13:06;94444.19;;;9.22;90.96
10462;BME280;5278;42.656;23.374;2023-03-03T13:15:42;94447.13;;;9.19;91.62
10462;BME280;5278;42.656;23.374;2023-03-03T13:18:28;94465.53;;;9.32;92.61
10462;BME280;5278;42.656;23.374;2023-03-03T13:21:02;94467.16;;;9.33;92.04
10462;BME280;5278;42.656;23.374;2023-03-03T13:23:41;94476.47;;;9.42;92.37
10462;BME280;5278;42.656;23.374;2023-03-03T13:26:12;94455.63;;;9.36;92.43
10462;BME280;5278;42.656;23.374;2023-03-03T13:28:55;94471.84;;;9.61;92.39
10462;BME280;5278;42.656;23.374;2023-03-03T13:31:29;94466.53;;;9.77;91.58
10462;BME280;5278;42.656;23.374;2023-03-03T13:33:59;94476.69;;;9.86;90.48
10462;BME280;5278;42.656;23.374;2023-03-03T13:36:29;94465.16;;;9.89;91.80
10462;BME280;5278;42.656;23.374;2023-03-03T13:39:04;94470.78;;;9.92;91.26
10462;BME280;5278;42.656;23.374;2023-03-03T13:41:42;94377.63;;;9.23;90.20